Time;durP1;ratioP1;P1;durP2;ratioP2;P2;SDS_P1;SDS_P2;PMS_P1;PMS_P2;Temp;Humidity;BMP_temperature;BMP_pressure;BME280_temperature;BME280_humidity;BME280_pressure;Samples;Min_cycle;Max_cycle;Signal;HPM_P1;HPM_P2
2022/03/08 00:04:10;;;;;;;13.45;6.20;;;3.50;46.30;;;;;;10006932;28;20074;-76
2022/03/08 00:09:00;;;;;;;12.35;6.15;;;3.50;46.30;;;;;;9996376;28;20061;-77
2022/03/08 00:13:51;;;;;;;11.70;7.00;;;3.40;46.30;;;;;;10004002;28;20054;-76
2022/03/08 00:18:44;;;;;;;11.75;6.13;;;3.40;46.30;;;;;;9994617;28;20036;-75
2022/03/08 00:23:35;;;;;;;13.65;5.95;;;3.40;46.40;;;;;;10007624;28;20076;-77
2022/03/08 00:28:26;;;;;;;11.25;5.47;;;3.40;46.40;;;;;;10007840;28;20038;-77
2022/03/08 00:33:17;;;;;;;11.20;5.55;;;3.40;46.30;;;;;;10011511;28;20063;-76
2022/03/08 00:38:08;;;;;;;11.15;6.40;;;3.40;46.20;;;;;;10015655;28;20132;-76
2022/03/08 00:42:59;;;;;;;11.38;6.30;;;3.40;46.20;;;;;;10015980;28;20072;-75
2022/03/08 00:47:49;;;;;;;11.27;5.57;;;3.40;46.10;;;;;;10012348;28;20705;-76
2022/03/08 00:52:40;;;;;;;11.52;5.65;;;3.30;46.00;;;;;;10011399;28;20026;-76
2022/03/08 00:57:33;;;;;;;14.68;6.15;;;3.30;46.10;;;;;;10008050;28;20124;-77
2022/03/08 01:02:23;;;;;;;14.20;5.50;;;3.20;46.10;;;;;;10010007;28;20070;-76
2022/03/08 01:07:15;;;;;;;12.15;5.65;;;3.20;46.20;;;;;;10005823;28;20038;-76
2022/03/08 01:12:07;;;;;;;9.23;5.13;;;3.20;46.20;;;;;;10002900;28;20090;-75
2022/03/08 01:16:57;;;;;;;9.45;5.10;;;3.20;46.30;;;;;;10017099;28;20123;-78
2022/03/08 01:21:48;;;;;;;7.80;4.68;;;3.20;46.10;;;;;;10013497;28;20037;-76
2022/03/08 01:26:39;;;;;;;8.73;4.30;;;3.20;46.20;;;;;;10017213;28;20540;-76
2022/03/08 01:31:29;;;;;;;12.50;4.80;;;2.80;47.30;;;;;;10008348;28;20037;-75
2022/03/08 01:36:21;;;;;;;11.70;5.38;;;2.50;48.70;;;;;;10000627;28;20041;-75
2022/03/08 01:41:12;;;;;;;11.27;5.38;;;2.40;49.20;;;;;;9998944;28;20022;-75
2022/03/08 01:46:04;;;;;;;11.70;5.38;;;2.20;49.50;;;;;;10014247;28;20026;-76
2022/03/08 01:50:55;;;;;;;9.52;4.70;;;2.00;50.40;;;;;;10008209;28;20026;-74
2022/03/08 01:55:46;;;;;;;10.00;5.97;;;1.90;50.40;;;;;;9999345;28;20053;-75
2022/03/08 02:00:37;;;;;;;11.68;6.22;;;1.90;50.30;;;;;;10014400;28;20036;-76
2022/03/08 02:05:28;;;;;;;12.80;5.70;;;2.00;49.40;;;;;;10014087;28;20055;-76
2022/03/08 02:10:19;;;;;;;11.65;5.53;;;1.90;50.70;;;;;;10006446;28;20527;-77
2022/03/08 02:15:19;;;;;;;14.15;6.53;;;1.80;50.50;;;;;;10008840;28;20069;-76
2022/03/08 02:20:11;;;;;;;10.82;6.78;;;1.70;49.60;;;;;;10010730;28;20488;-77
2022/03/08 02:25:03;;;;;;;10.30;5.95;;;1.70;49.50;;;;;;10019887;28;20108;-78
2022/03/08 02:29:54;;;;;;;11.57;6.55;;;1.40;49.40;;;;;;10012181;28;20424;-74
2022/03/08 02:34:44;;;;;;;9.40;5.10;;;1.40;49.70;;;;;;10006643;28;20018;-74
2022/03/08 02:39:36;;;;;;;11.45;5.10;;;1.40;50.40;;;;;;10008677;28;20033;-74
2022/03/08 02:44:27;;;;;;;8.45;4.97;;;1.50;50.70;;;;;;10022030;28;20504;-75
2022/03/08 02:49:18;;;;;;;8.90;4.13;;;1.50;50.20;;;;;;10008456;28;20030;-75
2022/03/08 02:54:09;;;;;;;12.23;5.80;;;1.50;51.30;;;;;;10017864;28;20026;-74
2022/03/08 02:59:00;;;;;;;14.13;6.35;;;1.40;51.00;;;;;;10009468;28;20054;-75
2022/03/08 03:03:51;;;;;;;8.15;4.78;;;1.20;50.80;;;;;;10008827;28;20124;-75
2022/03/08 03:08:41;;;;;;;5.95;3.95;;;1.20;51.60;;;;;;10011042;28;20515;-75
2022/03/08 03:13:32;;;;;;;10.05;4.55;;;1.20;52.40;;;;;;9998941;28;20556;-74
2022/03/08 03:18:22;;;;;;;11.40;5.00;;;1.30;52.40;;;;;;10005720;28;20052;-76
2022/03/08 03:23:13;;;;;;;10.52;5.47;;;1.20;52.70;;;;;;10010478;28;20559;-76
2022/03/08 03:28:04;;;;;;;9.63;4.25;;;1.20;52.40;;;;;;10006609;28;20033;-77
2022/03/08 03:32:55;;;;;;;14.55;5.53;;;1.30;52.00;;;;;;9997814;28;20122;-75
2022/03/08 03:37:46;;;;;;;12.60;6.75;;;1.10;51.80;;;;;;10012453;28;20304;-75
2022/03/08 03:42:37;;;;;;;12.43;5.45;;;0.80;52.10;;;;;;10002939;28;20508;-75
2022/03/08 03:47:28;;;;;;;12.32;5.57;;;0.90;52.00;;;;;;10001789;28;20033;-75
2022/03/08 03:52:19;;;;;;;7.85;4.10;;;1.00;52.80;;;;;;10002664;28;20518;-76
2022/03/08 03:57:11;;;;;;;11.60;4.80;;;0.90;52.70;;;;;;10012793;28;20061;-75
2022/03/08 04:02:02;;;;;;;15.25;5.72;;;0.90;52.80;;;;;;10006945;28;20025;-75
2022/03/08 04:06:53;;;;;;;9.25;4.68;;;0.80;52.90;;;;;;10009610;28;20030;-75
2022/03/08 04:11:44;;;;;;;11.00;4.22;;;1.00;53.60;;;;;;10009668;28;20030;-76
2022/03/08 04:16:35;;;;;;;8.15;4.68;;;1.00;53.80;;;;;;10009726;28;20041;-75
2022/03/08 04:21:26;;;;;;;10.10;4.38;;;1.00;53.80;;;;;;10001639;28;20533;-77
2022/03/08 04:26:16;;;;;;;10.65;4.00;;;1.00;54.20;;;;;;10007348;28;20042;-74
2022/03/08 04:31:07;;;;;;;10.80;5.18;;;0.90;54.20;;;;;;10004632;28;20029;-75
2022/03/08 04:35:58;;;;;;;12.63;4.55;;;0.90;53.50;;;;;;10006113;28;20377;-76
2022/03/08 04:40:49;;;;;;;13.65;5.22;;;1.00;53.40;;;;;;9998468;28;20025;-76
2022/03/08 04:45:39;;;;;;;14.30;5.35;;;0.90;53.00;;;;;;10005876;28;20104;-75
2022/03/08 04:50:30;;;;;;;11.75;5.38;;;0.80;53.00;;;;;;10005162;28;20050;-76
2022/03/08 04:55:21;;;;;;;11.43;5.30;;;0.90;53.00;;;;;;10008750;28;20077;-76
2022/03/08 05:00:13;;;;;;;8.52;4.35;;;0.80;53.00;;;;;;10007132;28;20264;-75
2022/03/08 05:05:05;;;;;;;9.68;4.82;;;0.80;52.90;;;;;;10001439;28;20143;-76
2022/03/08 05:09:56;;;;;;;10.02;4.95;;;0.80;53.30;;;;;;10006760;28;20107;-75
2022/03/08 05:14:47;;;;;;;13.20;4.32;;;0.80;53.20;;;;;;10005529;28;20085;-76
2022/03/08 05:19:37;;;;;;;9.35;4.75;;;0.90;53.10;;;;;;10016250;28;20124;-76
2022/03/08 05:24:28;;;;;;;12.02;5.03;;;0.80;53.10;;;;;;10016243;28;20033;-75
2022/03/08 05:29:19;;;;;;;11.85;4.22;;;0.80;53.20;;;;;;10004016;28;20432;-75
2022/03/08 05:34:10;;;;;;;12.63;4.38;;;0.80;53.30;;;;;;10007359;28;20032;-76
2022/03/08 05:39:02;;;;;;;9.50;4.90;;;0.80;53.20;;;;;;10028002;28;20523;-75
2022/03/08 05:43:52;;;;;;;10.98;4.70;;;0.80;53.20;;;;;;10016681;28;20459;-75
2022/03/08 05:48:43;;;;;;;14.45;5.60;;;0.80;53.60;;;;;;10014082;28;20038;-76
2022/03/08 05:53:34;;;;;;;11.07;5.43;;;0.70;53.60;;;;;;10016434;28;20021;-74
2022/03/08 05:58:24;;;;;;;11.95;4.90;;;0.70;53.90;;;;;;10031903;28;20060;-75
2022/03/08 06:03:15;;;;;;;10.95;5.40;;;0.60;53.90;;;;;;10017689;28;20362;-74
2022/03/08 06:08:06;;;;;;;9.20;4.32;;;0.60;53.90;;;;;;10016235;28;20041;-75
2022/03/08 06:12:56;;;;;;;8.25;4.78;;;0.60;54.10;;;;;;10012779;28;20038;-76
2022/03/08 06:17:47;;;;;;;9.68;5.15;;;0.80;54.00;;;;;;10016654;28;20036;-76
2022/03/08 06:22:40;;;;;;;11.82;4.50;;;0.70;54.10;;;;;;10011929;28;20108;-75
2022/03/08 06:27:30;;;;;;;9.20;5.13;;;0.70;54.30;;;;;;10016254;28;20034;-75
2022/03/08 06:32:21;;;;;;;12.05;4.93;;;0.80;55.10;;;;;;10018671;28;20026;-75
2022/03/08 06:37:12;;;;;;;10.88;4.72;;;0.90;54.50;;;;;;10014644;28;20038;-76
2022/03/08 06:42:04;;;;;;;13.23;5.32;;;0.80;54.60;;;;;;10016811;28;20088;-74
2022/03/08 06:46:55;;;;;;;10.13;4.43;;;0.80;54.70;;;;;;10013714;28;20042;-74
2022/03/08 06:51:47;;;;;;;13.25;6.03;;;0.80;54.90;;;;;;10014496;28;20125;-75
2022/03/08 06:56:37;;;;;;;11.43;5.65;;;1.00;54.70;;;;;;10010219;28;20081;-76
2022/03/08 07:01:28;;;;;;;10.93;6.05;;;1.00;54.80;;;;;;10004740;28;20026;-75
2022/03/08 07:06:19;;;;;;;8.30;4.10;;;1.00;55.20;;;;;;10011771;28;20396;-76
2022/03/08 07:11:10;;;;;;;16.25;7.00;;;1.10;56.40;;;;;;10012061;28;20021;-75
2022/03/08 07:16:01;;;;;;;12.70;5.65;;;0.80;56.10;;;;;;10012090;28;20053;-75
2022/03/08 07:20:52;;;;;;;10.27;5.25;;;0.70;56.40;;;;;;10010641;28;20553;-75
2022/03/08 07:25:43;;;;;;;9.70;4.75;;;0.70;56.60;;;;;;9998720;28;20108;-74
2022/03/08 07:30:34;;;;;;;9.00;4.55;;;0.80;57.20;;;;;;10009098;28;20030;-74
2022/03/08 07:35:25;;;;;;;11.00;5.03;;;0.90;57.40;;;;;;10010400;28;20045;-73
2022/03/08 07:40:16;;;;;;;9.02;4.53;;;0.90;57.10;;;;;;10007572;28;20054;-64
2022/03/08 07:45:07;;;;;;;8.25;3.60;;;1.10;57.60;;;;;;10004098;28;20440;-65
2022/03/08 07:49:58;;;;;;;10.73;4.72;;;1.20;57.00;;;;;;10006860;28;20597;-63
2022/03/08 07:54:48;;;;;;;9.65;4.45;;;1.40;57.40;;;;;;10004437;28;20247;-65
2022/03/08 07:59:40;;;;;;;12.38;4.78;;;1.40;56.90;;;;;;10005016;28;20030;-70
2022/03/08 08:04:30;;;;;;;12.50;5.40;;;1.50;57.30;;;;;;10009142;28;20048;-70
2022/03/08 08:09:21;;;;;;;10.85;4.63;;;1.70;57.40;;;;;;10005846;28;20025;-70
2022/03/08 08:14:12;;;;;;;12.80;5.70;;;1.80;56.90;;;;;;10004170;28;20164;-69
2022/03/08 08:19:03;;;;;;;14.00;5.30;;;2.00;56.50;;;;;;10007780;28;20042;-73
2022/03/08 08:23:54;;;;;;;11.90;5.75;;;2.30;56.00;;;;;;10003902;28;20092;-72
2022/03/08 08:28:45;;;;;;;13.80;5.68;;;2.50;55.80;;;;;;10005971;28;20033;-73
2022/03/08 08:33:36;;;;;;;9.98;5.25;;;2.60;55.80;;;;;;10005730;28;20034;-60
2022/03/08 08:38:26;;;;;;;9.30;4.97;;;2.70;55.80;;;;;;10000527;28;20129;-65
2022/03/08 08:43:17;;;;;;;11.27;5.03;;;2.80;55.90;;;;;;10003524;28;20030;-62
2022/03/08 08:48:08;;;;;;;9.05;4.10;;;3.00;55.70;;;;;;10005737;28;20034;-60
2022/03/08 08:52:59;;;;;;;9.02;4.60;;;3.20;55.70;;;;;;10015102;28;20109;-69
2022/03/08 08:57:50;;;;;;;8.75;4.60;;;3.30;55.50;;;;;;10012453;28;20042;-69
2022/03/08 09:02:43;;;;;;;7.57;4.25;;;3.50;55.20;;;;;;10014799;28;20026;-71
2022/03/08 09:07:34;;;;;;;10.60;5.72;;;3.70;55.10;;;;;;10014131;28;20475;-73
2022/03/08 09:12:25;;;;;;;8.02;4.32;;;3.80;55.10;;;;;;10012879;28;20991;-64
2022/03/08 09:17:15;;;;;;;10.25;5.65;;;3.90;54.90;;;;;;10022850;28;20065;-64
2022/03/08 09:22:06;;;;;;;9.15;4.93;;;4.00;54.80;;;;;;10022217;28;20048;-70
2022/03/08 09:26:57;;;;;;;8.77;4.15;;;4.20;54.60;;;;;;10012531;28;20108;-68
2022/03/08 09:31:48;;;;;;;9.18;4.35;;;4.30;54.40;;;;;;10013512;28;20034;-70
2022/03/08 09:36:38;;;;;;;10.20;4.95;;;4.30;54.40;;;;;;9991083;28;20049;-71
2022/03/08 09:41:29;;;;;;;9.25;4.90;;;4.40;54.10;;;;;;10019842;28;20077;-70
2022/03/08 09:46:20;;;;;;;17.52;8.82;;;4.60;53.90;;;;;;9997943;28;20144;-75
2022/03/08 09:51:11;;;;;;;13.25;5.47;;;4.80;53.30;;;;;;10015609;28;20033;-75
2022/03/08 09:56:03;;;;;;;8.38;4.28;;;5.00;52.50;;;;;;10013794;28;20430;-71
2022/03/08 10:00:55;;;;;;;5.55;3.65;;;5.10;52.70;;;;;;10023567;28;20543;-71
2022/03/08 10:05:46;;;;;;;7.43;4.55;;;5.10;52.50;;;;;;10021195;28;20037;-65
2022/03/08 10:10:58;;;;;;;6.45;4.22;;;5.20;52.30;;;;;;10023722;28;20038;-67
2022/03/08 10:16:04;;;;;;;5.57;3.92;;;5.30;51.90;;;;;;10022829;28;20629;-67
2022/03/08 10:20:56;;;;;;;8.77;4.80;;;5.50;51.70;;;;;;10016864;28;20133;-78
2022/03/08 10:25:47;;;;;;;6.03;3.13;;;5.70;51.40;;;;;;10006202;28;20056;-71
2022/03/08 10:30:43;;;;;;;6.00;3.80;;;5.80;51.00;;;;;;10009417;28;20111;-72
2022/03/08 10:35:39;;;;;;;4.10;3.42;;;5.80;50.90;;;;;;10018629;28;20398;-76
2022/03/08 10:40:32;;;;;;;7.15;3.75;;;5.90;50.70;;;;;;10008362;28;20118;-74
2022/03/08 10:45:27;;;;;;;6.78;3.58;;;6.10;50.40;;;;;;10029924;28;20021;-72
2022/03/08 10:50:19;;;;;;;6.57;3.75;;;6.20;50.30;;;;;;10019714;28;20113;-75
2022/03/08 10:55:13;;;;;;;6.53;3.65;;;6.20;50.20;;;;;;10016544;28;20529;-66
2022/03/08 11:00:11;;;;;;;9.43;4.65;;;6.20;50.00;;;;;;10011550;28;20185;-74
2022/03/08 11:05:09;;;;;;;5.97;3.47;;;6.30;50.00;;;;;;10027908;28;20268;-74
2022/03/08 11:10:02;;;;;;;8.23;4.43;;;6.30;49.90;;;;;;10012979;28;20025;-74
2022/03/08 11:14:53;;;;;;;8.52;4.28;;;6.40;49.80;;;;;;9996900;28;20607;-71
2022/03/08 11:19:45;;;;;;;8.10;4.13;;;6.50;49.50;;;;;;10014216;28;20034;-69
2022/03/08 11:24:36;;;;;;;5.75;3.45;;;6.60;49.50;;;;;;10018098;28;20053;-73
2022/03/08 11:29:28;;;;;;;7.07;4.05;;;6.80;49.20;;;;;;10017568;28;20452;-74
2022/03/08 11:34:32;;;;;;;7.22;4.80;;;6.80;49.20;;;;;;10015161;28;20030;-68
2022/03/08 11:39:28;;;;;;;9.43;3.97;;;6.80;48.60;;;;;;10014152;28;20069;-69
2022/03/08 11:44:31;;;;;;;6.07;4.15;;;6.90;48.70;;;;;;10011025;28;20193;-73
2022/03/08 11:49:46;;;;;;;7.78;3.45;;;6.90;48.20;;;;;;10010249;28;20042;-66
2022/03/08 11:54:37;;;;;;;6.72;4.03;;;7.00;48.50;;;;;;10011300;28;20030;-67
2022/03/08 11:59:28;;;;;;;4.93;3.72;;;7.10;48.50;;;;;;10010735;28;20301;-70
2022/03/08 12:04:20;;;;;;;4.57;3.10;;;7.20;48.30;;;;;;10008267;28;20026;-67
2022/03/08 12:09:17;;;;;;;6.38;3.72;;;7.20;48.00;;;;;;10002550;28;20620;-65
2022/03/08 12:14:11;;;;;;;8.45;3.45;;;7.40;47.90;;;;;;10004854;28;20165;-74
2022/03/08 12:19:03;;;;;;;7.38;3.75;;;7.70;47.60;;;;;;10008583;28;20069;-74
2022/03/08 12:24:04;;;;;;;7.35;3.97;;;7.80;46.50;;;;;;10019990;28;20451;-74
2022/03/08 12:29:07;;;;;;;4.22;2.97;;;8.10;46.70;;;;;;10021316;28;20091;-73
2022/03/08 12:34:07;;;;;;;6.10;3.67;;;8.30;46.30;;;;;;10033353;28;20071;-75
2022/03/08 12:38:58;;;;;;;5.63;3.92;;;8.50;45.90;;;;;;10032594;28;20072;-74
2022/03/08 12:43:59;;;;;;;7.47;3.50;;;8.60;46.20;;;;;;10037209;28;20337;-74
2022/03/08 12:48:53;;;;;;;5.30;3.17;;;8.90;45.80;;;;;;10031642;28;20069;-75
2022/03/08 12:53:43;;;;;;;5.90;3.60;;;9.40;45.90;;;;;;10041265;28;20377;-73
2022/03/08 12:58:39;;;;;;;6.70;3.70;;;9.80;46.00;;;;;;10026378;28;20093;-74
2022/03/08 13:03:36;;;;;;;5.72;4.15;;;10.20;45.70;;;;;;10012680;28;20369;-73
2022/03/08 13:08:29;;;;;;;6.25;4.68;;;10.60;46.00;;;;;;10034071;28;20029;-71
2022/03/08 13:13:24;;;;;;;8.85;4.60;;;10.70;46.20;;;;;;10023789;28;20056;-67
2022/03/08 13:18:22;;;;;;;162.63;85.53;;;11.30;46.50;;;;;;10016010;28;20882;-67
2022/03/08 13:23:14;;;;;;;17.60;10.30;;;12.00;47.00;;;;;;10020089;28;20030;-68
2022/03/08 13:28:08;;;;;;;8.80;5.68;;;12.30;47.20;;;;;;10013039;28;20022;-68
2022/03/08 13:33:24;;;;;;;7.13;5.35;;;12.70;47.90;;;;;;10015963;28;20053;-69
2022/03/08 13:38:19;;;;;;;9.13;5.45;;;13.10;42.10;;;;;;10011559;28;20038;-70
2022/03/08 13:43:13;;;;;;;7.35;4.75;;;13.10;47.50;;;;;;10013098;28;20048;-67
2022/03/08 13:48:04;;;;;;;;;;;13.80;47.00;;;;;;10010828;28;20029;-71
2022/03/08 13:53:17;;;;;;;7.65;4.75;;;14.60;45.70;;;;;;10011971;28;20449;-69
2022/03/08 13:58:19;;;;;;;7.00;4.88;;;15.80;44.90;;;;;;10010990;28;20050;-67
2022/03/08 14:03:12;;;;;;;5.90;4.32;;;16.70;42.90;;;;;;10010870;28;20046;-71
2022/03/08 14:08:03;;;;;;;;;;;17.10;41.80;;;;;;10012889;28;20156;-72
2022/03/08 14:12:54;;;;;;;6.10;4.32;;;17.50;39.90;;;;;;10012385;28;20071;-70
2022/03/08 14:18:02;;;;;;;6.13;5.03;;;17.20;41.50;;;;;;10000829;28;20101;-69
2022/03/08 14:23:03;;;;;;;5.25;4.63;;;17.50;40.10;;;;;;10014704;28;20120;-78
2022/03/08 14:27:53;;;;;;;4.57;4.13;;;17.80;38.10;;;;;;10016452;28;20034;-72
2022/03/08 14:32:44;;;;;;;6.05;4.95;;;18.00;37.80;;;;;;10004887;28;20343;-72
2022/03/08 14:37:35;;;;;;;5.30;4.43;;;19.00;36.30;;;;;;10011823;28;20041;-70
2022/03/08 14:42:35;;;;;;;6.25;4.43;;;19.70;35.00;;;;;;10006651;28;20093;-68
2022/03/08 14:47:31;;;;;;;5.25;4.13;;;20.80;32.90;;;;;;10010387;28;20117;-74
2022/03/08 14:52:25;;;;;;;4.85;4.22;;;22.20;31.80;;;;;;10007657;28;20021;-67
2022/03/08 14:57:16;;;;;;;5.88;3.22;;;22.10;30.60;;;;;;10007090;28;20389;-72
2022/03/08 15:02:07;;;;;;;6.55;4.07;;;23.20;29.40;;;;;;10010868;28;20029;-69
2022/03/08 15:06:57;;;;;;;8.10;3.78;;;23.90;28.70;;;;;;10007784;28;20022;-71
2022/03/08 15:11:48;;;;;;;6.13;4.53;;;24.30;28.00;;;;;;10008660;28;20026;-68
2022/03/08 15:16:39;;;;;;;4.82;3.95;;;24.50;27.70;;;;;;10028632;28;20038;-72
2022/03/08 15:21:30;;;;;;;5.15;4.10;;;24.50;27.30;;;;;;10028678;28;20025;-71
2022/03/08 15:26:22;;;;;;;5.68;4.43;;;25.50;26.60;;;;;;10019298;28;20089;-69
2022/03/08 15:31:14;;;;;;;7.68;4.90;;;25.80;26.30;;;;;;10023138;28;20353;-72
2022/03/08 15:36:05;;;;;;;6.18;4.13;;;25.40;26.10;;;;;;10024021;28;20038;-67
2022/03/08 15:40:56;;;;;;;5.95;4.15;;;25.20;25.70;;;;;;10015041;28;20208;-66
2022/03/08 15:45:46;;;;;;;4.47;3.70;;;25.10;25.90;;;;;;10022035;28;20264;-69
2022/03/08 15:50:38;;;;;;;4.10;3.50;;;25.80;25.40;;;;;;10015890;28;20021;-68
2022/03/08 15:55:28;;;;;;;67.43;44.95;;;25.10;25.20;;;;;;10019604;28;20083;-73
2022/03/08 16:00:19;;;;;;;125.78;80.20;;;24.50;25.30;;;;;;10017465;28;20628;-67
2022/03/08 16:05:10;;;;;;;17.45;8.20;;;24.50;25.40;;;;;;9999540;28;20096;-73
2022/03/08 16:10:03;;;;;;;6.97;5.18;;;23.40;25.40;;;;;;10006183;28;20068;-66
2022/03/08 16:14:54;;;;;;;5.18;3.75;;;22.10;25.90;;;;;;10005545;28;20567;-72
2022/03/08 16:19:45;;;;;;;7.47;4.47;;;22.50;25.70;;;;;;10001163;28;20033;-72
2022/03/08 16:24:35;;;;;;;5.82;3.83;;;22.50;25.40;;;;;;10006691;28;20045;-73
2022/03/08 16:29:26;;;;;;;6.80;4.47;;;21.40;25.70;;;;;;10003369;28;20370;-72
2022/03/08 16:34:17;;;;;;;9.32;4.10;;;18.20;26.90;;;;;;10006801;28;20067;-66
2022/03/08 16:39:08;;;;;;;6.55;4.18;;;15.40;28.30;;;;;;10001865;28;20045;-69
2022/03/08 16:43:59;;;;;;;5.38;4.22;;;13.80;28.80;;;;;;10006126;28;20069;-72
2022/03/08 16:48:50;;;;;;;5.75;3.08;;;13.00;29.00;;;;;;10007198;28;20033;-75
2022/03/08 16:53:41;;;;;;;6.57;3.40;;;12.60;28.90;;;;;;10024292;28;20021;-74
2022/03/08 16:58:31;;;;;;;7.70;3.58;;;12.30;28.80;;;;;;10007532;28;20119;-73
2022/03/08 17:03:22;;;;;;;6.20;4.18;;;12.10;28.90;;;;;;10005387;28;20041;-68
2022/03/08 17:08:14;;;;;;;5.63;3.45;;;11.90;29.00;;;;;;10006172;28;20427;-67
2022/03/08 17:13:05;;;;;;;6.13;3.78;;;11.70;29.20;;;;;;10015592;28;20068;-61
2022/03/08 17:17:56;;;;;;;5.45;3.28;;;11.60;29.10;;;;;;10009342;28;20064;-69
2022/03/08 17:22:47;;;;;;;8.38;5.82;;;11.40;29.10;;;;;;10014832;28;20442;-69
2022/03/08 17:27:37;;;;;;;10.70;5.03;;;11.30;29.30;;;;;;10013976;28;20018;-68
2022/03/08 17:32:28;;;;;;;7.82;4.63;;;11.10;29.40;;;;;;10017022;28;20032;-69
2022/03/08 17:37:19;;;;;;;6.55;4.50;;;11.00;29.50;;;;;;10010641;28;20558;-69
2022/03/08 17:42:09;;;;;;;5.35;3.35;;;10.90;29.70;;;;;;10013021;28;20439;-69
2022/03/08 17:47:01;;;;;;;7.72;3.75;;;10.80;29.80;;;;;;10013548;28;20589;-71
2022/03/08 17:51:51;;;;;;;4.55;3.30;;;10.70;29.90;;;;;;10001119;28;20033;-68
2022/03/08 17:56:43;;;;;;;6.82;4.05;;;10.50;30.00;;;;;;10008604;28;20538;-69
2022/03/08 18:01:34;;;;;;;5.93;3.25;;;10.40;30.10;;;;;;10015330;28;20032;-69
2022/03/08 18:06:25;;;;;;;5.70;3.85;;;10.30;30.10;;;;;;10009373;28;20040;-70
2022/03/08 18:11:16;;;;;;;6.70;3.22;;;10.20;30.30;;;;;;9988191;28;20471;-66
2022/03/08 18:16:06;;;;;;;7.50;3.78;;;10.10;30.50;;;;;;10012439;28;20077;-68
2022/03/08 18:20:57;;;;;;;5.13;3.22;;;10.10;30.50;;;;;;10011446;28;20527;-64
2022/03/08 18:25:48;;;;;;;11.90;6.68;;;10.00;30.60;;;;;;10012864;28;20105;-68
2022/03/08 18:30:38;;;;;;;30.88;14.65;;;10.00;30.70;;;;;;10017257;28;20026;-76
2022/03/08 18:35:29;;;;;;;9.10;6.18;;;10.00;30.70;;;;;;10012868;28;20030;-69
2022/03/08 18:40:20;;;;;;;10.52;3.95;;;9.80;30.90;;;;;;10014368;28;20045;-70
2022/03/08 18:45:11;;;;;;;5.95;3.55;;;9.70;31.10;;;;;;10011832;28;20493;-70
2022/03/08 18:50:03;;;;;;;10.95;4.20;;;9.50;31.30;;;;;;10008648;28;20436;-73
2022/03/08 18:54:53;;;;;;;9.48;3.80;;;9.40;31.40;;;;;;10011686;28;20036;-72
2022/03/08 18:59:44;;;;;;;8.57;4.57;;;9.40;31.50;;;;;;10003706;28;20045;-68
2022/03/08 19:04:35;;;;;;;8.00;3.65;;;9.40;31.50;;;;;;10009264;28;20028;-70
2022/03/08 19:09:26;;;;;;;6.78;3.47;;;9.30;31.60;;;;;;10005630;28;20034;-68
2022/03/08 19:14:17;;;;;;;7.80;4.00;;;9.30;31.60;;;;;;10008648;28;20523;-68
2022/03/08 19:19:08;;;;;;;6.75;4.05;;;9.20;31.80;;;;;;10019188;28;20037;-75
2022/03/08 19:23:59;;;;;;;7.50;3.90;;;9.30;32.60;;;;;;10001041;28;20415;-72
2022/03/08 19:28:49;;;;;;;8.45;4.40;;;9.20;32.00;;;;;;10004944;28;20041;-73
2022/03/08 19:33:41;;;;;;;7.75;4.55;;;9.10;32.00;;;;;;10013584;28;20022;-74
2022/03/08 19:38:32;;;;;;;10.60;5.55;;;9.10;32.20;;;;;;10011956;28;20145;-75
2022/03/08 19:43:23;;;;;;;10.38;4.85;;;8.90;32.30;;;;;;10010133;28;20026;-73
2022/03/08 19:48:14;;;;;;;7.38;5.00;;;8.90;32.40;;;;;;10011425;28;20397;-76
2022/03/08 19:53:05;;;;;;;10.23;6.18;;;8.70;32.50;;;;;;9998958;28;20048;-76
2022/03/08 19:57:57;;;;;;;10.35;5.63;;;8.70;32.60;;;;;;10009878;28;20049;-77
2022/03/08 20:02:48;;;;;;;10.32;5.40;;;8.60;32.70;;;;;;9994732;28;20225;-69
2022/03/08 20:07:38;;;;;;;14.95;5.57;;;8.50;32.90;;;;;;10001152;28;20279;-69
2022/03/08 20:12:30;;;;;;;26.73;12.82;;;8.40;33.00;;;;;;10003757;28;20034;-70
2022/03/08 20:17:21;;;;;;;12.57;6.75;;;8.40;33.00;;;;;;9999393;28;20048;-69
2022/03/08 20:22:13;;;;;;;10.13;5.43;;;8.40;33.20;;;;;;10006843;28;20026;-69
2022/03/08 20:27:04;;;;;;;13.15;5.10;;;8.30;33.20;;;;;;9996389;28;20092;-68
2022/03/08 20:31:56;;;;;;;11.00;5.25;;;8.30;33.40;;;;;;10007370;28;20074;-73
2022/03/08 20:36:47;;;;;;;9.93;5.35;;;8.40;33.50;;;;;;10009331;28;20088;-71
2022/03/08 20:41:38;;;;;;;9.15;4.90;;;8.30;33.60;;;;;;10006711;28;20524;-71
2022/03/08 20:46:29;;;;;;;8.75;4.80;;;8.10;33.70;;;;;;10003611;28;20061;-68
2022/03/08 20:51:20;;;;;;;10.40;4.75;;;8.10;33.90;;;;;;10002232;28;20409;-70
2022/03/08 20:56:11;;;;;;;7.90;4.93;;;8.10;33.90;;;;;;10013613;28;20181;-71
2022/03/08 21:01:02;;;;;;;10.48;4.60;;;8.10;34.10;;;;;;10015231;28;20109;-70
2022/03/08 21:05:53;;;;;;;6.45;4.50;;;8.10;34.20;;;;;;10012631;28;20112;-71
2022/03/08 21:10:44;;;;;;;11.43;5.05;;;8.00;34.20;;;;;;10006171;28;20108;-73
2022/03/08 21:15:35;;;;;;;8.32;4.65;;;8.10;34.30;;;;;;10020005;28;20058;-71
2022/03/08 21:20:26;;;;;;;15.55;5.85;;;7.90;34.30;;;;;;10004588;28;20029;-75
2022/03/08 21:25:17;;;;;;;9.00;5.70;;;7.90;34.60;;;;;;10018919;28;20523;-74
2022/03/08 21:30:08;;;;;;;10.02;5.43;;;7.80;34.70;;;;;;10026559;28;20037;-72
2022/03/08 21:34:59;;;;;;;12.23;6.90;;;7.70;34.80;;;;;;10018871;28;20497;-72
2022/03/08 21:39:50;;;;;;;22.50;9.50;;;7.70;34.90;;;;;;10015324;28;20045;-74
2022/03/08 21:44:40;;;;;;;18.08;8.93;;;7.70;35.00;;;;;;10012286;28;20514;-72
2022/03/08 21:49:31;;;;;;;10.23;5.13;;;7.70;35.20;;;;;;10014831;28;20750;-70
2022/03/08 21:54:22;;;;;;;11.02;5.78;;;7.60;35.20;;;;;;10009993;28;20033;-72
2022/03/08 21:59:13;;;;;;;19.33;8.88;;;7.50;35.40;;;;;;9997458;28;20029;-70
2022/03/08 22:04:05;;;;;;;13.32;6.70;;;7.40;35.50;;;;;;10012906;28;20050;-69
2022/03/08 22:08:56;;;;;;;8.98;5.43;;;7.30;35.60;;;;;;10014018;28;20425;-74
2022/03/08 22:13:47;;;;;;;15.48;5.97;;;7.30;35.90;;;;;;10001011;28;20053;-75
2022/03/08 22:18:37;;;;;;;14.85;6.63;;;7.20;35.90;;;;;;10010149;28;20281;-74
2022/03/08 22:23:28;;;;;;;14.38;5.50;;;7.20;36.10;;;;;;10000210;28;20573;-74
2022/03/08 22:28:19;;;;;;;11.95;6.03;;;7.10;36.10;;;;;;10009435;28;20504;-74
2022/03/08 22:33:09;;;;;;;13.38;5.82;;;7.00;36.30;;;;;;10006771;28;20095;-74
2022/03/08 22:38:00;;;;;;;10.98;5.38;;;7.00;36.30;;;;;;10009307;28;20041;-74
2022/03/08 22:42:51;;;;;;;11.20;5.47;;;6.90;36.60;;;;;;10010098;28;20090;-75
2022/03/08 22:47:41;;;;;;;11.48;5.63;;;6.80;36.70;;;;;;10005438;28;20465;-75
2022/03/08 22:52:32;;;;;;;12.25;6.97;;;6.80;36.90;;;;;;10008182;28;20033;-73
2022/03/08 22:57:23;;;;;;;15.55;7.28;;;6.80;37.00;;;;;;10006537;28;20046;-72
2022/03/08 23:02:14;;;;;;;15.40;6.40;;;6.70;37.10;;;;;;10009890;28;20078;-74
2022/03/08 23:07:04;;;;;;;12.38;6.47;;;6.60;37.40;;;;;;10010023;28;20081;-75
2022/03/08 23:11:55;;;;;;;12.57;6.15;;;6.70;37.60;;;;;;10011843;28;20030;-75
2022/03/08 23:16:46;;;;;;;9.00;5.80;;;6.50;37.70;;;;;;10009596;28;20088;-74
2022/03/08 23:21:37;;;;;;;13.50;6.55;;;6.40;37.90;;;;;;10014937;28;20030;-74
2022/03/08 23:26:27;;;;;;;9.77;6.03;;;6.30;38.00;;;;;;10023837;28;20500;-73
2022/03/08 23:31:18;;;;;;;12.18;6.22;;;6.30;38.20;;;;;;10008683;28;20604;-75
2022/03/08 23:36:09;;;;;;;15.85;6.40;;;6.20;38.40;;;;;;10009809;28;20497;-73
2022/03/08 23:40:59;;;;;;;11.48;6.93;;;6.10;38.60;;;;;;10020245;28;20105;-75
2022/03/08 23:45:50;;;;;;;13.63;5.80;;;6.10;38.80;;;;;;10006489;28;20033;-72
2022/03/08 23:50:41;;;;;;;14.65;6.60;;;6.00;38.90;;;;;;9998406;28;20457;-73
2022/03/08 23:55:33;;;;;;;11.70;6.55;;;5.90;39.20;;;;;;10003124;28;20053;-74
